sensor_id;sensor_type;location;lat;lon;timestamp;temperature;humidity
11639;DHT22;5875;35.940;126.892;2022-07-24T00:01:14;26.40;99.90
11639;DHT22;5875;35.940;126.892;2022-07-24T00:03:41;26.50;99.90
11639;DHT22;5875;35.940;126.892;2022-07-24T00:06:09;26.70;99.90
11639;DHT22;5875;35.940;126.892;2022-07-24T00:08:36;26.60;99.90
11639;DHT22;5875;35.940;126.892;2022-07-24T00:11:03;26.80;99.90
11639;DHT22;5875;35.940;126.892;2022-07-24T00:13:30;26.90;99.90
11639;DHT22;5875;35.940;126.892;2022-07-24T00:15:57;27.10;99.90
11639;DHT22;5875;35.940;126.892;2022-07-24T00:18:24;27.10;99.90
11639;DHT22;5875;35.940;126.892;2022-07-24T00:20:51;27.10;99.90
11639;DHT22;5875;35.940;126.892;2022-07-24T00:23:18;27.00;99.90
11639;DHT22;5875;35.940;126.892;2022-07-24T00:25:45;27.00;99.90
11639;DHT22;5875;35.940;126.892;2022-07-24T00:28:12;27.10;99.90
11639;DHT22;5875;35.940;126.892;2022-07-24T00:30:40;27.10;99.90
11639;DHT22;5875;35.940;126.892;2022-07-24T00:33:07;27.10;99.90
11639;DHT22;5875;35.940;126.892;2022-07-24T00:35:34;27.30;99.90
11639;DHT22;5875;35.940;126.892;2022-07-24T00:38:02;27.50;99.90
11639;DHT22;5875;35.940;126.892;2022-07-24T00:40:29;27.50;99.90
11639;DHT22;5875;35.940;126.892;2022-07-24T00:42:57;27.70;99.90
11639;DHT22;5875;35.940;126.892;2022-07-24T00:45:24;27.50;99.90
11639;DHT22;5875;35.940;126.892;2022-07-24T00:47:52;27.50;99.90
11639;DHT22;5875;35.940;126.892;2022-07-24T00:50:19;27.60;99.90
11639;DHT22;5875;35.940;126.892;2022-07-24T00:52:47;27.60;99.90
11639;DHT22;5875;35.940;126.892;2022-07-24T00:55:14;27.70;99.90
11639;DHT22;5875;35.940;126.892;2022-07-24T00:57:41;27.60;99.90
11639;DHT22;5875;35.940;126.892;2022-07-24T01:00:12;27.50;99.90
11639;DHT22;5875;35.940;126.892;2022-07-24T01:02:41;27.70;99.90
11639;DHT22;5875;35.940;126.892;2022-07-24T01:05:12;27.60;99.90
11639;DHT22;5875;35.940;126.892;2022-07-24T01:07:39;27.70;99.90
11639;DHT22;5875;35.940;126.892;2022-07-24T01:10:07;27.80;99.90
11639;DHT22;5875;35.940;126.892;2022-07-24T01:12:36;27.90;99.90
11639;DHT22;5875;35.940;126.892;2022-07-24T01:15:05;27.80;99.90
11639;DHT22;5875;35.940;126.892;2022-07-24T01:17:38;27.80;99.90
11639;DHT22;5875;35.940;126.892;2022-07-24T01:20:06;27.80;99.90
11639;DHT22;5875;35.940;126.892;2022-07-24T01:22:34;27.80;99.90
11639;DHT22;5875;35.940;126.892;2022-07-24T01:25:01;27.60;99.90
11639;DHT22;5875;35.940;126.892;2022-07-24T01:27:28;27.70;99.90
11639;DHT22;5875;35.940;126.892;2022-07-24T01:29:55;27.70;99.90
11639;DHT22;5875;35.940;126.892;2022-07-24T01:32:22;27.70;99.90
11639;DHT22;5875;35.940;126.892;2022-07-24T01:34:49;27.70;99.90
11639;DHT22;5875;35.940;126.892;2022-07-24T01:37:16;27.80;99.90
11639;DHT22;5875;35.940;126.892;2022-07-24T01:39:44;27.70;99.90
11639;DHT22;5875;35.940;126.892;2022-07-24T01:42:11;27.80;99.90
11639;DHT22;5875;35.940;126.892;2022-07-24T01:44:38;27.70;99.90
11639;DHT22;5875;35.940;126.892;2022-07-24T01:47:05;27.70;99.90
11639;DHT22;5875;35.940;126.892;2022-07-24T01:49:32;27.70;99.90
11639;DHT22;5875;35.940;126.892;2022-07-24T01:51:59;27.70;99.90
11639;DHT22;5875;35.940;126.892;2022-07-24T01:54:26;27.60;99.90
11639;DHT22;5875;35.940;126.892;2022-07-24T01:56:53;27.50;99.90
11639;DHT22;5875;35.940;126.892;2022-07-24T01:59:20;27.50;99.90
11639;DHT22;5875;35.940;126.892;2022-07-24T02:01:47;27.50;99.90
11639;DHT22;5875;35.940;126.892;2022-07-24T02:04:15;27.40;99.90
11639;DHT22;5875;35.940;126.892;2022-07-24T02:06:42;27.50;99.90
11639;DHT22;5875;35.940;126.892;2022-07-24T02:09:09;27.60;99.90
11639;DHT22;5875;35.940;126.892;2022-07-24T02:11:36;27.60;99.90
11639;DHT22;5875;35.940;126.892;2022-07-24T02:14:03;27.70;99.90
11639;DHT22;5875;35.940;126.892;2022-07-24T02:16:30;27.70;99.90
11639;DHT22;5875;35.940;126.892;2022-07-24T02:18:57;27.70;99.90
11639;DHT22;5875;35.940;126.892;2022-07-24T02:21:24;27.70;99.90
11639;DHT22;5875;35.940;126.892;2022-07-24T02:23:51;27.60;99.90
11639;DHT22;5875;35.940;126.892;2022-07-24T02:26:19;27.60;99.90
11639;DHT22;5875;35.940;126.892;2022-07-24T02:28:46;27.60;99.90
11639;DHT22;5875;35.940;126.892;2022-07-24T02:31:13;27.60;99.90
11639;DHT22;5875;35.940;126.892;2022-07-24T02:33:40;27.60;99.90
11639;DHT22;5875;35.940;126.892;2022-07-24T02:36:07;27.70;99.90
11639;DHT22;5875;35.940;126.892;2022-07-24T02:38:34;27.70;99.90
11639;DHT22;5875;35.940;126.892;2022-07-24T02:41:02;27.70;99.90
11639;DHT22;5875;35.940;126.892;2022-07-24T02:43:29;27.70;99.90
11639;DHT22;5875;35.940;126.892;2022-07-24T02:45:56;27.60;99.90
11639;DHT22;5875;35.940;126.892;2022-07-24T02:48:24;27.50;99.90
11639;DHT22;5875;35.940;126.892;2022-07-24T02:50:52;27.40;99.90
11639;DHT22;5875;35.940;126.892;2022-07-24T02:53:19;27.40;99.90
11639;DHT22;5875;35.940;126.892;2022-07-24T02:55:46;27.50;99.90
11639;DHT22;5875;35.940;126.892;2022-07-24T02:58:13;27.50;99.90
11639;DHT22;5875;35.940;126.892;2022-07-24T03:00:40;27.60;99.90
11639;DHT22;5875;35.940;126.892;2022-07-24T03:03:07;27.60;99.90
11639;DHT22;5875;35.940;126.892;2022-07-24T03:05:35;27.50;99.90
11639;DHT22;5875;35.940;126.892;2022-07-24T03:08:02;27.40;99.90
11639;DHT22;5875;35.940;126.892;2022-07-24T03:10:29;27.40;99.90
11639;DHT22;5875;35.940;126.892;2022-07-24T03:12:56;27.30;99.90
11639;DHT22;5875;35.940;126.892;2022-07-24T03:15:23;27.30;99.90
11639;DHT22;5875;35.940;126.892;2022-07-24T03:17:55;27.10;99.90
11639;DHT22;5875;35.940;126.892;2022-07-24T03:20:25;27.20;99.90
11639;DHT22;5875;35.940;126.892;2022-07-24T03:22:52;27.20;99.90
11639;DHT22;5875;35.940;126.892;2022-07-24T03:25:20;27.30;99.90
11639;DHT22;5875;35.940;126.892;2022-07-24T03:27:47;27.10;99.90
11639;DHT22;5875;35.940;126.892;2022-07-24T03:30:16;27.10;99.90
11639;DHT22;5875;35.940;126.892;2022-07-24T03:32:44;26.90;99.90
11639;DHT22;5875;35.940;126.892;2022-07-24T03:35:11;26.90;99.90
11639;DHT22;5875;35.940;126.892;2022-07-24T03:37:38;26.90;99.90
11639;DHT22;5875;35.940;126.892;2022-07-24T03:40:06;26.90;99.90
11639;DHT22;5875;35.940;126.892;2022-07-24T03:42:33;27.10;99.90
11639;DHT22;5875;35.940;126.892;2022-07-24T03:45:01;27.20;99.90
11639;DHT22;5875;35.940;126.892;2022-07-24T03:47:28;27.40;99.90
11639;DHT22;5875;35.940;126.892;2022-07-24T03:49:55;27.30;99.90
11639;DHT22;5875;35.940;126.892;2022-07-24T03:52:23;27.20;99.90
11639;DHT22;5875;35.940;126.892;2022-07-24T03:54:50;27.10;99.90
11639;DHT22;5875;35.940;126.892;2022-07-24T03:57:17;27.10;99.90
11639;DHT22;5875;35.940;126.892;2022-07-24T03:59:44;27.30;99.90
11639;DHT22;5875;35.940;126.892;2022-07-24T04:02:11;27.10;99.90
11639;DHT22;5875;35.940;126.892;2022-07-24T04:04:39;27.30;99.90
11639;DHT22;5875;35.940;126.892;2022-07-24T04:07:06;27.40;99.90
11639;DHT22;5875;35.940;126.892;2022-07-24T04:09:33;27.20;99.90
11639;DHT22;5875;35.940;126.892;2022-07-24T04:12:00;27.40;99.90
11639;DHT22;5875;35.940;126.892;2022-07-24T04:14:28;27.40;99.90
11639;DHT22;5875;35.940;126.892;2022-07-24T04:16:55;27.30;99.90
11639;DHT22;5875;35.940;126.892;2022-07-24T04:19:22;27.50;99.90
11639;DHT22;5875;35.940;126.892;2022-07-24T04:21:49;27.40;99.90
11639;DHT22;5875;35.940;126.892;2022-07-24T04:24:16;27.30;99.90
11639;DHT22;5875;35.940;126.892;2022-07-24T04:26:43;27.20;99.90
11639;DHT22;5875;35.940;126.892;2022-07-24T04:29:10;27.40;99.90
11639;DHT22;5875;35.940;126.892;2022-07-24T04:31:37;27.50;99.90
11639;DHT22;5875;35.940;126.892;2022-07-24T04:34:05;27.50;99.90
11639;DHT22;5875;35.940;126.892;2022-07-24T04:36:32;27.60;99.90
11639;DHT22;5875;35.940;126.892;2022-07-24T04:38:59;27.70;99.90
11639;DHT22;5875;35.940;126.892;2022-07-24T04:41:26;27.80;99.90
11639;DHT22;5875;35.940;126.892;2022-07-24T04:43:53;28.00;99.90
11639;DHT22;5875;35.940;126.892;2022-07-24T04:46:20;28.10;99.90
11639;DHT22;5875;35.940;126.892;2022-07-24T04:48:47;28.10;99.90
11639;DHT22;5875;35.940;126.892;2022-07-24T04:51:14;28.20;99.90
11639;DHT22;5875;35.940;126.892;2022-07-24T04:53:42;28.20;99.90
11639;DHT22;5875;35.940;126.892;2022-07-24T04:56:09;28.20;99.90
11639;DHT22;5875;35.940;126.892;2022-07-24T04:58:36;28.30;99.90
11639;DHT22;5875;35.940;126.892;2022-07-24T05:01:04;28.40;99.90
11639;DHT22;5875;35.940;126.892;2022-07-24T05:03:31;28.50;99.90
11639;DHT22;5875;35.940;126.892;2022-07-24T05:05:58;28.60;99.90
11639;DHT22;5875;35.940;126.892;2022-07-24T05:08:25;28.60;99.90
11639;DHT22;5875;35.940;126.892;2022-07-24T05:10:52;28.60;99.90
11639;DHT22;5875;35.940;126.892;2022-07-24T05:13:19;28.50;99.90
11639;DHT22;5875;35.940;126.892;2022-07-24T05:15:46;28.40;99.90
11639;DHT22;5875;35.940;126.892;2022-07-24T05:18:13;28.50;99.90
11639;DHT22;5875;35.940;126.892;2022-07-24T05:20:40;28.50;99.90
11639;DHT22;5875;35.940;126.892;2022-07-24T05:23:07;28.60;99.90
11639;DHT22;5875;35.940;126.892;2022-07-24T05:25:35;28.50;99.90
11639;DHT22;5875;35.940;126.892;2022-07-24T05:28:02;28.50;99.90
11639;DHT22;5875;35.940;126.892;2022-07-24T05:30:30;28.40;99.90
11639;DHT22;5875;35.940;126.892;2022-07-24T05:32:57;28.40;99.90
11639;DHT22;5875;35.940;126.892;2022-07-24T05:35:24;28.40;99.90
11639;DHT22;5875;35.940;126.892;2022-07-24T05:37:51;28.20;99.90
11639;DHT22;5875;35.940;126.892;2022-07-24T05:40:18;28.10;99.90
11639;DHT22;5875;35.940;126.892;2022-07-24T05:42:45;28.10;99.90
11639;DHT22;5875;35.940;126.892;2022-07-24T05:45:12;28.20;99.90
11639;DHT22;5875;35.940;126.892;2022-07-24T05:47:40;28.40;99.90
11639;DHT22;5875;35.940;126.892;2022-07-24T05:50:09;28.50;99.90
11639;DHT22;5875;35.940;126.892;2022-07-24T05:52:36;28.50;99.90
11639;DHT22;5875;35.940;126.892;2022-07-24T05:55:04;28.70;99.90
11639;DHT22;5875;35.940;126.892;2022-07-24T05:57:32;28.70;99.90
11639;DHT22;5875;35.940;126.892;2022-07-24T06:00:00;28.80;99.90
11639;DHT22;5875;35.940;126.892;2022-07-24T06:02:27;29.00;99.90
11639;DHT22;5875;35.940;126.892;2022-07-24T06:04:54;29.20;99.90
11639;DHT22;5875;35.940;126.892;2022-07-24T06:07:21;29.30;99.90
11639;DHT22;5875;35.940;126.892;2022-07-24T06:09:48;29.20;99.90
11639;DHT22;5875;35.940;126.892;2022-07-24T06:12:18;29.30;99.90
11639;DHT22;5875;35.940;126.892;2022-07-24T06:14:45;29.20;99.90
11639;DHT22;5875;35.940;126.892;2022-07-24T06:17:12;29.10;99.90
11639;DHT22;5875;35.940;126.892;2022-07-24T06:19:39;29.10;99.90
11639;DHT22;5875;35.940;126.892;2022-07-24T06:22:06;29.00;99.90
11639;DHT22;5875;35.940;126.892;2022-07-24T06:24:34;29.10;99.90
11639;DHT22;5875;35.940;126.892;2022-07-24T06:27:01;29.00;99.90
11639;DHT22;5875;35.940;126.892;2022-07-24T06:29:28;29.00;99.90
11639;DHT22;5875;35.940;126.892;2022-07-24T06:31:55;29.00;99.90
11639;DHT22;5875;35.940;126.892;2022-07-24T06:34:22;29.00;99.90
11639;DHT22;5875;35.940;126.892;2022-07-24T06:36:52;28.90;99.90
11639;DHT22;5875;35.940;126.892;2022-07-24T06:39:19;28.80;99.90
11639;DHT22;5875;35.940;126.892;2022-07-24T06:41:46;28.70;99.90
11639;DHT22;5875;35.940;126.892;2022-07-24T06:44:14;28.70;99.90
11639;DHT22;5875;35.940;126.892;2022-07-24T06:46:41;28.60;99.90
11639;DHT22;5875;35.940;126.892;2022-07-24T06:49:08;28.50;99.90
11639;DHT22;5875;35.940;126.892;2022-07-24T06:51:35;28.50;99.90
11639;DHT22;5875;35.940;126.892;2022-07-24T06:54:03;28.40;99.90
11639;DHT22;5875;35.940;126.892;2022-07-24T06:56:30;28.40;99.90
11639;DHT22;5875;35.940;126.892;2022-07-24T06:58:57;28.50;99.90
11639;DHT22;5875;35.940;126.892;2022-07-24T07:01:26;28.40;99.90
11639;DHT22;5875;35.940;126.892;2022-07-24T07:03:56;28.30;99.90
11639;DHT22;5875;35.940;126.892;2022-07-24T07:06:23;28.30;99.90
11639;DHT22;5875;35.940;126.892;2022-07-24T07:08:50;28.30;99.90
11639;DHT22;5875;35.940;126.892;2022-07-24T07:11:17;28.30;99.90
11639;DHT22;5875;35.940;126.892;2022-07-24T07:13:44;28.30;99.90
11639;DHT22;5875;35.940;126.892;2022-07-24T07:16:11;28.20;99.90
11639;DHT22;5875;35.940;126.892;2022-07-24T07:18:38;28.20;99.90
11639;DHT22;5875;35.940;126.892;2022-07-24T07:21:06;28.30;99.90
11639;DHT22;5875;35.940;126.892;2022-07-24T07:23:33;28.30;99.90
11639;DHT22;5875;35.940;126.892;2022-07-24T07:26:00;28.30;99.90
11639;DHT22;5875;35.940;126.892;2022-07-24T07:28:27;28.30;99.90
11639;DHT22;5875;35.940;126.892;2022-07-24T07:30:54;28.30;99.90
11639;DHT22;5875;35.940;126.892;2022-07-24T07:33:21;28.20;99.90
11639;DHT22;5875;35.940;126.892;2022-07-24T07:35:48;28.20;99.90
11639;DHT22;5875;35.940;126.892;2022-07-24T07:38:16;28.10;99.90
11639;DHT22;5875;35.940;126.892;2022-07-24T07:40:43;28.10;99.90
11639;DHT22;5875;35.940;126.892;2022-07-24T07:43:10;28.10;99.90
11639;DHT22;5875;35.940;126.892;2022-07-24T07:45:37;28.10;99.90
11639;DHT22;5875;35.940;126.892;2022-07-24T07:48:05;28.00;99.90
11639;DHT22;5875;35.940;126.892;2022-07-24T07:50:32;27.90;99.90
11639;DHT22;5875;35.940;126.892;2022-07-24T07:52:59;28.00;99.90
11639;DHT22;5875;35.940;126.892;2022-07-24T07:55:26;28.00;99.90
11639;DHT22;5875;35.940;126.892;2022-07-24T07:57:53;27.90;99.90
11639;DHT22;5875;35.940;126.892;2022-07-24T08:00:21;27.90;99.90
11639;DHT22;5875;35.940;126.892;2022-07-24T08:02:49;27.90;99.90
11639;DHT22;5875;35.940;126.892;2022-07-24T08:05:16;27.80;99.90
11639;DHT22;5875;35.940;126.892;2022-07-24T08:07:43;27.80;99.90
11639;DHT22;5875;35.940;126.892;2022-07-24T08:10:10;27.80;99.90
11639;DHT22;5875;35.940;126.892;2022-07-24T08:12:38;27.80;99.90
11639;DHT22;5875;35.940;126.892;2022-07-24T08:15:05;27.90;99.90
11639;DHT22;5875;35.940;126.892;2022-07-24T08:17:33;27.80;99.90
11639;DHT22;5875;35.940;126.892;2022-07-24T08:20:00;27.80;99.90
11639;DHT22;5875;35.940;126.892;2022-07-24T08:22:27;27.90;99.90
11639;DHT22;5875;35.940;126.892;2022-07-24T08:24:54;27.90;99.90
11639;DHT22;5875;35.940;126.892;2022-07-24T08:27:21;27.90;99.90
11639;DHT22;5875;35.940;126.892;2022-07-24T08:29:48;27.90;99.90
11639;DHT22;5875;35.940;126.892;2022-07-24T08:32:15;27.90;99.90
11639;DHT22;5875;35.940;126.892;2022-07-24T08:34:42;27.90;99.90
11639;DHT22;5875;35.940;126.892;2022-07-24T08:37:10;27.90;99.90
11639;DHT22;5875;35.940;126.892;2022-07-24T08:39:37;27.90;99.90
11639;DHT22;5875;35.940;126.892;2022-07-24T08:42:06;28.00;99.90
11639;DHT22;5875;35.940;126.892;2022-07-24T08:44:33;28.00;99.90
11639;DHT22;5875;35.940;126.892;2022-07-24T08:47:01;27.90;99.90
11639;DHT22;5875;35.940;126.892;2022-07-24T08:49:31;27.80;99.90
11639;DHT22;5875;35.940;126.892;2022-07-24T08:52:00;27.80;99.90
11639;DHT22;5875;35.940;126.892;2022-07-24T08:54:29;27.80;99.90
11639;DHT22;5875;35.940;126.892;2022-07-24T08:56:56;27.90;99.90
11639;DHT22;5875;35.940;126.892;2022-07-24T08:59:24;27.80;99.90
11639;DHT22;5875;35.940;126.892;2022-07-24T09:01:52;27.80;99.90
11639;DHT22;5875;35.940;126.892;2022-07-24T09:07:07;27.70;99.90
11639;DHT22;5875;35.940;126.892;2022-07-24T09:09:36;27.70;99.90
11639;DHT22;5875;35.940;126.892;2022-07-24T09:12:08;27.60;99.90
11639;DHT22;5875;35.940;126.892;2022-07-24T09:14:38;27.60;99.90
11639;DHT22;5875;35.940;126.892;2022-07-24T09:17:20;27.50;99.90
11639;DHT22;5875;35.940;126.892;2022-07-24T09:19:55;27.50;99.90
11639;DHT22;5875;35.940;126.892;2022-07-24T09:22:30;27.40;99.90
11639;DHT22;5875;35.940;126.892;2022-07-24T09:25:08;27.40;99.90
11639;DHT22;5875;35.940;126.892;2022-07-24T09:27:38;27.40;99.90
11639;DHT22;5875;35.940;126.892;2022-07-24T09:30:07;27.40;99.90
11639;DHT22;5875;35.940;126.892;2022-07-24T09:32:35;27.40;99.90
11639;DHT22;5875;35.940;126.892;2022-07-24T09:35:03;27.40;99.90
11639;DHT22;5875;35.940;126.892;2022-07-24T09:37:31;27.40;99.90
11639;DHT22;5875;35.940;126.892;2022-07-24T09:40:09;27.30;99.90
11639;DHT22;5875;35.940;126.892;2022-07-24T09:42:36;27.30;99.90
11639;DHT22;5875;35.940;126.892;2022-07-24T09:45:07;27.30;99.90
11639;DHT22;5875;35.940;126.892;2022-07-24T09:47:36;27.30;99.90
11639;DHT22;5875;35.940;126.892;2022-07-24T09:50:15;27.30;99.90
11639;DHT22;5875;35.940;126.892;2022-07-24T09:52:44;27.30;99.90
11639;DHT22;5875;35.940;126.892;2022-07-24T09:55:22;27.30;99.90
11639;DHT22;5875;35.940;126.892;2022-07-24T09:57:50;27.30;99.90
11639;DHT22;5875;35.940;126.892;2022-07-24T10:00:18;27.30;99.90
11639;DHT22;5875;35.940;126.892;2022-07-24T10:02:46;27.30;99.90
11639;DHT22;5875;35.940;126.892;2022-07-24T10:05:13;27.20;99.90
11639;DHT22;5875;35.940;126.892;2022-07-24T10:07:42;27.20;99.90
11639;DHT22;5875;35.940;126.892;2022-07-24T10:10:11;27.20;99.90
11639;DHT22;5875;35.940;126.892;2022-07-24T10:12:38;27.20;99.90
11639;DHT22;5875;35.940;126.892;2022-07-24T10:15:06;27.10;99.90
11639;DHT22;5875;35.940;126.892;2022-07-24T10:20:40;27.00;99.90
11639;DHT22;5875;35.940;126.892;2022-07-24T10:23:08;27.00;99.90
11639;DHT22;5875;35.940;126.892;2022-07-24T10:25:54;26.90;99.90
11639;DHT22;5875;35.940;126.892;2022-07-24T10:28:36;26.90;99.90
11639;DHT22;5875;35.940;126.892;2022-07-24T10:31:09;26.90;99.90
11639;DHT22;5875;35.940;126.892;2022-07-24T10:33:38;26.90;99.90
11639;DHT22;5875;35.940;126.892;2022-07-24T10:36:20;26.80;99.90
11639;DHT22;5875;35.940;126.892;2022-07-24T10:39:00;26.80;99.90
11639;DHT22;5875;35.940;126.892;2022-07-24T10:41:30;26.80;99.90
11639;DHT22;5875;35.940;126.892;2022-07-24T10:44:18;26.80;99.90
11639;DHT22;5875;35.940;126.892;2022-07-24T10:49:48;26.70;99.90
11639;DHT22;5875;35.940;126.892;2022-07-24T10:52:27;26.60;99.90
11639;DHT22;5875;35.940;126.892;2022-07-24T10:55:30;26.60;99.90
11639;DHT22;5875;35.940;126.892;2022-07-24T10:58:11;26.50;99.90
11639;DHT22;5875;35.940;126.892;2022-07-24T11:00:50;26.50;99.90
11639;DHT22;5875;35.940;126.892;2022-07-24T11:03:23;26.50;99.90
11639;DHT22;5875;35.940;126.892;2022-07-24T11:06:11;26.50;99.90
11639;DHT22;5875;35.940;126.892;2022-07-24T11:08:40;26.50;99.90
11639;DHT22;5875;35.940;126.892;2022-07-24T11:11:11;26.50;99.90
11639;DHT22;5875;35.940;126.892;2022-07-24T11:13:40;26.50;99.90
11639;DHT22;5875;35.940;126.892;2022-07-24T11:21:35;26.50;99.90
11639;DHT22;5875;35.940;126.892;2022-07-24T11:27:13;26.40;99.90
11639;DHT22;5875;35.940;126.892;2022-07-24T11:29:42;26.40;99.90
11639;DHT22;5875;35.940;126.892;2022-07-24T11:32:13;26.40;99.90
11639;DHT22;5875;35.940;126.892;2022-07-24T11:34:45;26.40;99.90
11639;DHT22;5875;35.940;126.892;2022-07-24T11:37:13;26.40;99.90
11639;DHT22;5875;35.940;126.892;2022-07-24T11:39:42;26.40;99.90
11639;DHT22;5875;35.940;126.892;2022-07-24T11:42:14;26.40;99.90
11639;DHT22;5875;35.940;126.892;2022-07-24T11:44:49;26.30;99.90
11639;DHT22;5875;35.940;126.892;2022-07-24T11:47:21;26.30;99.90
11639;DHT22;5875;35.940;126.892;2022-07-24T11:49:51;26.30;99.90
11639;DHT22;5875;35.940;126.892;2022-07-24T11:55:17;26.30;99.90
11639;DHT22;5875;35.940;126.892;2022-07-24T11:57:48;26.30;99.90
11639;DHT22;5875;35.940;126.892;2022-07-24T12:00:19;26.30;99.90
11639;DHT22;5875;35.940;126.892;2022-07-24T12:02:54;26.30;99.90
11639;DHT22;5875;35.940;126.892;2022-07-24T12:05:34;26.30;99.90
11639;DHT22;5875;35.940;126.892;2022-07-24T12:08:05;26.30;99.90
11639;DHT22;5875;35.940;126.892;2022-07-24T12:10:41;26.30;99.90
11639;DHT22;5875;35.940;126.892;2022-07-24T12:13:08;26.20;99.90
11639;DHT22;5875;35.940;126.892;2022-07-24T12:15:38;26.20;99.90
11639;DHT22;5875;35.940;126.892;2022-07-24T12:18:08;26.20;99.90
11639;DHT22;5875;35.940;126.892;2022-07-24T12:20:36;26.20;99.90
11639;DHT22;5875;35.940;126.892;2022-07-24T12:23:10;26.20;99.90
11639;DHT22;5875;35.940;126.892;2022-07-24T12:25:38;26.20;99.90
11639;DHT22;5875;35.940;126.892;2022-07-24T12:28:09;26.20;99.90
11639;DHT22;5875;35.940;126.892;2022-07-24T12:30:38;26.20;99.90
11639;DHT22;5875;35.940;126.892;2022-07-24T12:36:05;26.20;99.90
11639;DHT22;5875;35.940;126.892;2022-07-24T12:38:52;26.10;99.90
11639;DHT22;5875;35.940;126.892;2022-07-24T12:41:22;26.10;99.90
11639;DHT22;5875;35.940;126.892;2022-07-24T12:44:06;26.10;99.90
11639;DHT22;5875;35.940;126.892;2022-07-24T12:46:39;26.00;99.90
11639;DHT22;5875;35.940;126.892;2022-07-24T12:51:54;26.00;99.90
11639;DHT22;5875;35.940;126.892;2022-07-24T12:54:31;26.10;99.90
11639;DHT22;5875;35.940;126.892;2022-07-24T12:57:01;26.10;99.90
11639;DHT22;5875;35.940;126.892;2022-07-24T13:02:07;26.10;99.90
11639;DHT22;5875;35.940;126.892;2022-07-24T13:04:55;26.10;99.90
11639;DHT22;5875;35.940;126.892;2022-07-24T13:07:26;26.10;99.90
11639;DHT22;5875;35.940;126.892;2022-07-24T13:09:53;26.10;99.90
11639;DHT22;5875;35.940;126.892;2022-07-24T13:12:22;26.10;99.90
11639;DHT22;5875;35.940;126.892;2022-07-24T13:14:50;26.10;99.90
11639;DHT22;5875;35.940;126.892;2022-07-24T13:17:18;26.10;99.90
11639;DHT22;5875;35.940;126.892;2022-07-24T13:19:48;26.10;99.90
11639;DHT22;5875;35.940;126.892;2022-07-24T13:22:16;26.10;99.90
11639;DHT22;5875;35.940;126.892;2022-07-24T13:24:43;26.10;99.90
11639;DHT22;5875;35.940;126.892;2022-07-24T13:27:12;26.10;99.90
11639;DHT22;5875;35.940;126.892;2022-07-24T13:29:40;26.20;99.90
11639;DHT22;5875;35.940;126.892;2022-07-24T13:32:07;26.10;99.90
11639;DHT22;5875;35.940;126.892;2022-07-24T13:34:34;26.10;99.90
11639;DHT22;5875;35.940;126.892;2022-07-24T13:37:02;26.10;99.90
11639;DHT22;5875;35.940;126.892;2022-07-24T13:39:31;26.10;99.90
11639;DHT22;5875;35.940;126.892;2022-07-24T13:41:58;26.10;99.90
11639;DHT22;5875;35.940;126.892;2022-07-24T13:44:25;26.10;99.90
11639;DHT22;5875;35.940;126.892;2022-07-24T13:46:53;26.10;99.90
11639;DHT22;5875;35.940;126.892;2022-07-24T13:49:20;26.10;99.90
11639;DHT22;5875;35.940;126.892;2022-07-24T13:51:47;26.10;99.90
11639;DHT22;5875;35.940;126.892;2022-07-24T13:54:14;26.00;99.90
11639;DHT22;5875;35.940;126.892;2022-07-24T13:56:42;26.10;99.90
11639;DHT22;5875;35.940;126.892;2022-07-24T13:59:10;26.00;99.90
11639;DHT22;5875;35.940;126.892;2022-07-24T14:01:38;26.00;99.90
11639;DHT22;5875;35.940;126.892;2022-07-24T14:04:05;26.00;99.90
11639;DHT22;5875;35.940;126.892;2022-07-24T14:06:35;26.00;99.90
11639;DHT22;5875;35.940;126.892;2022-07-24T14:09:05;26.00;99.90
11639;DHT22;5875;35.940;126.892;2022-07-24T14:11:34;26.00;99.90
11639;DHT22;5875;35.940;126.892;2022-07-24T14:14:01;26.00;99.90
11639;DHT22;5875;35.940;126.892;2022-07-24T14:16:28;26.00;99.90
11639;DHT22;5875;35.940;126.892;2022-07-24T14:18:55;26.00;99.90
11639;DHT22;5875;35.940;126.892;2022-07-24T14:21:22;26.00;99.90
11639;DHT22;5875;35.940;126.892;2022-07-24T14:23:49;26.00;99.90
11639;DHT22;5875;35.940;126.892;2022-07-24T14:26:17;26.00;99.90
11639;DHT22;5875;35.940;126.892;2022-07-24T14:28:44;26.00;99.90
11639;DHT22;5875;35.940;126.892;2022-07-24T14:31:11;26.00;99.90
11639;DHT22;5875;35.940;126.892;2022-07-24T14:33:39;26.00;99.90
11639;DHT22;5875;35.940;126.892;2022-07-24T14:36:07;26.00;99.90
11639;DHT22;5875;35.940;126.892;2022-07-24T14:38:34;26.00;99.90
11639;DHT22;5875;35.940;126.892;2022-07-24T14:41:01;26.00;99.90
11639;DHT22;5875;35.940;126.892;2022-07-24T14:43:28;26.00;99.90
11639;DHT22;5875;35.940;126.892;2022-07-24T14:45:55;26.00;99.90
11639;DHT22;5875;35.940;126.892;2022-07-24T14:48:22;25.90;99.90
11639;DHT22;5875;35.940;126.892;2022-07-24T14:50:49;26.00;99.90
11639;DHT22;5875;35.940;126.892;2022-07-24T14:53:16;26.00;99.90
11639;DHT22;5875;35.940;126.892;2022-07-24T14:55:43;26.00;99.90
11639;DHT22;5875;35.940;126.892;2022-07-24T14:58:10;26.00;99.90
11639;DHT22;5875;35.940;126.892;2022-07-24T15:00:38;26.00;99.90
11639;DHT22;5875;35.940;126.892;2022-07-24T15:03:05;26.00;99.90
11639;DHT22;5875;35.940;126.892;2022-07-24T15:05:32;26.00;99.90
11639;DHT22;5875;35.940;126.892;2022-07-24T15:07:59;26.00;99.90
11639;DHT22;5875;35.940;126.892;2022-07-24T15:10:26;26.00;99.90
11639;DHT22;5875;35.940;126.892;2022-07-24T15:12:53;26.00;99.90
11639;DHT22;5875;35.940;126.892;2022-07-24T15:15:20;26.00;99.90
11639;DHT22;5875;35.940;126.892;2022-07-24T15:17:47;26.00;99.90
11639;DHT22;5875;35.940;126.892;2022-07-24T15:20:14;26.00;99.90
11639;DHT22;5875;35.940;126.892;2022-07-24T15:22:41;26.00;99.90
11639;DHT22;5875;35.940;126.892;2022-07-24T15:25:09;26.00;99.90
11639;DHT22;5875;35.940;126.892;2022-07-24T15:27:36;26.00;99.90
11639;DHT22;5875;35.940;126.892;2022-07-24T15:30:03;25.90;99.90
11639;DHT22;5875;35.940;126.892;2022-07-24T15:32:31;26.00;99.90
11639;DHT22;5875;35.940;126.892;2022-07-24T15:34:58;25.90;99.90
11639;DHT22;5875;35.940;126.892;2022-07-24T15:37:29;26.00;99.90
11639;DHT22;5875;35.940;126.892;2022-07-24T15:39:56;26.00;99.90
11639;DHT22;5875;35.940;126.892;2022-07-24T15:42:23;26.00;99.90
11639;DHT22;5875;35.940;126.892;2022-07-24T15:44:50;25.90;99.90
11639;DHT22;5875;35.940;126.892;2022-07-24T15:47:17;25.90;99.90
11639;DHT22;5875;35.940;126.892;2022-07-24T15:49:45;25.90;99.90
11639;DHT22;5875;35.940;126.892;2022-07-24T15:52:12;25.90;99.90